sensor_id;sensor_type;location;lat;lon;timestamp;pressure;altitude;pressure_sealevel;temperature;humidity
54920;BME280;63804;53.120;8.764;2023-05-01T00:00:53;102057.47;;;8.96;65.37
54920;BME280;63804;53.120;8.764;2023-05-01T00:03:20;102056.78;;;8.74;66.04
54920;BME280;63804;53.120;8.764;2023-05-01T00:05:47;102057.47;;;8.77;65.77
54920;BME280;63804;53.120;8.764;2023-05-01T00:08:14;102052.00;;;8.82;65.74
54920;BME280;63804;53.120;8.764;2023-05-01T00:10:42;102041.72;;;9.14;64.42
54920;BME280;63804;53.120;8.764;2023-05-01T00:13:09;102040.41;;;9.03;65.02
54920;BME280;63804;53.120;8.764;2023-05-01T00:15:36;102040.00;;;9.13;64.52
54920;BME280;63804;53.120;8.764;2023-05-01T00:18:03;102029.72;;;9.25;63.99
54920;BME280;63804;53.120;8.764;2023-05-01T00:20:30;102037.63;;;9.25;63.83
54920;BME280;63804;53.120;8.764;2023-05-01T00:22:57;102029.00;;;9.22;63.69
54920;BME280;63804;53.120;8.764;2023-05-01T00:25:24;102029.13;;;9.19;64.26
54920;BME280;63804;53.120;8.764;2023-05-01T00:27:51;102030.78;;;9.21;64.16
54920;BME280;63804;53.120;8.764;2023-05-01T00:30:18;102024.66;;;9.21;63.87
54920;BME280;63804;53.120;8.764;2023-05-01T00:32:45;102027.72;;;9.12;64.27
54920;BME280;63804;53.120;8.764;2023-05-01T00:35:12;102023.00;;;9.18;63.80
54920;BME280;63804;53.120;8.764;2023-05-01T00:37:39;102019.50;;;9.18;64.11
54920;BME280;63804;53.120;8.764;2023-05-01T00:40:06;102020.44;;;9.17;64.14
54920;BME280;63804;53.120;8.764;2023-05-01T00:42:35;102021.19;;;9.19;63.94
54920;BME280;63804;53.120;8.764;2023-05-01T00:45:03;102021.28;;;9.17;63.98
54920;BME280;63804;53.120;8.764;2023-05-01T00:47:30;102015.38;;;9.12;64.24
54920;BME280;63804;53.120;8.764;2023-05-01T00:49:58;102018.22;;;9.08;64.26
54920;BME280;63804;53.120;8.764;2023-05-01T00:52:25;102011.22;;;9.07;64.31
54920;BME280;63804;53.120;8.764;2023-05-01T00:54:53;102011.16;;;9.08;64.31
54920;BME280;63804;53.120;8.764;2023-05-01T00:57:20;102001.00;;;8.99;64.67
54920;BME280;63804;53.120;8.764;2023-05-01T00:59:48;102004.94;;;9.09;64.40
54920;BME280;63804;53.120;8.764;2023-05-01T01:02:15;101997.16;;;9.06;64.41
54920;BME280;63804;53.120;8.764;2023-05-01T01:04:44;101993.94;;;8.99;64.63
54920;BME280;63804;53.120;8.764;2023-05-01T01:07:26;101994.88;;;8.98;64.68
54920;BME280;63804;53.120;8.764;2023-05-01T01:10:36;101994.25;;;8.93;64.85
54920;BME280;63804;53.120;8.764;2023-05-01T01:13:38;101994.38;;;8.90;64.91
54920;BME280;63804;53.120;8.764;2023-05-01T01:16:13;101989.16;;;8.89;65.07
54920;BME280;63804;53.120;8.764;2023-05-01T01:18:52;101989.16;;;8.89;65.16
54920;BME280;63804;53.120;8.764;2023-05-01T01:21:30;101986.81;;;8.83;65.40
54920;BME280;63804;53.120;8.764;2023-05-01T01:26:57;101986.53;;;8.51;66.14
54920;BME280;63804;53.120;8.764;2023-05-01T01:29:47;101982.03;;;8.72;65.53
54920;BME280;63804;53.120;8.764;2023-05-01T01:35:19;101981.72;;;8.40;66.93
54920;BME280;63804;53.120;8.764;2023-05-01T01:41:12;101968.81;;;8.53;66.37
54920;BME280;63804;53.120;8.764;2023-05-01T01:43:44;101965.19;;;8.56;66.16
54920;BME280;63804;53.120;8.764;2023-05-01T01:46:13;101961.03;;;8.50;66.02
54920;BME280;63804;53.120;8.764;2023-05-01T01:48:45;101956.53;;;8.52;65.94
54920;BME280;63804;53.120;8.764;2023-05-01T01:51:17;101948.50;;;8.55;65.98
54920;BME280;63804;53.120;8.764;2023-05-01T01:53:50;101954.03;;;8.49;66.14
54920;BME280;63804;53.120;8.764;2023-05-01T01:56:19;101943.56;;;8.47;66.00
54920;BME280;63804;53.120;8.764;2023-05-01T01:58:47;101943.47;;;8.49;65.98
54920;BME280;63804;53.120;8.764;2023-05-01T02:01:15;101934.75;;;8.47;65.80
54920;BME280;63804;53.120;8.764;2023-05-01T02:03:44;101936.09;;;8.37;66.30
54920;BME280;63804;53.120;8.764;2023-05-01T02:06:14;101932.59;;;8.36;66.38
54920;BME280;63804;53.120;8.764;2023-05-01T02:08:45;101927.13;;;8.41;65.83
54920;BME280;63804;53.120;8.764;2023-05-01T02:11:14;101925.53;;;8.37;65.97
54920;BME280;63804;53.120;8.764;2023-05-01T02:13:44;101922.94;;;8.35;65.82
54920;BME280;63804;53.120;8.764;2023-05-01T02:16:12;101924.31;;;8.25;66.25
54920;BME280;63804;53.120;8.764;2023-05-01T02:18:41;101924.44;;;8.22;66.18
54920;BME280;63804;53.120;8.764;2023-05-01T02:21:09;101926.34;;;8.18;66.45
54920;BME280;63804;53.120;8.764;2023-05-01T02:23:38;101924.56;;;8.19;66.10
54920;BME280;63804;53.120;8.764;2023-05-01T02:26:05;101922.31;;;7.91;67.08
54920;BME280;63804;53.120;8.764;2023-05-01T02:28:35;101919.53;;;7.53;68.29
54920;BME280;63804;53.120;8.764;2023-05-01T02:31:08;101917.88;;;7.30;69.08
54920;BME280;63804;53.120;8.764;2023-05-01T02:33:35;101920.75;;;7.24;69.81
54920;BME280;63804;53.120;8.764;2023-05-01T02:36:02;101913.66;;;7.67;68.37
54920;BME280;63804;53.120;8.764;2023-05-01T02:38:30;101908.84;;;7.97;66.86
54920;BME280;63804;53.120;8.764;2023-05-01T02:40:59;101901.44;;;8.05;66.25
54920;BME280;63804;53.120;8.764;2023-05-01T02:43:27;101902.63;;;8.18;65.74
54920;BME280;63804;53.120;8.764;2023-05-01T02:45:55;101900.75;;;8.20;66.08
54920;BME280;63804;53.120;8.764;2023-05-01T02:48:26;101902.47;;;8.21;65.86
54920;BME280;63804;53.120;8.764;2023-05-01T02:50:54;101901.66;;;8.00;66.47
54920;BME280;63804;53.120;8.764;2023-05-01T02:53:22;101896.50;;;7.97;66.45
54920;BME280;63804;53.120;8.764;2023-05-01T02:55:49;101896.25;;;8.03;65.94
54920;BME280;63804;53.120;8.764;2023-05-01T02:58:17;101881.00;;;8.10;65.93
54920;BME280;63804;53.120;8.764;2023-05-01T03:00:45;101883.63;;;8.10;65.97
54920;BME280;63804;53.120;8.764;2023-05-01T03:03:13;101882.56;;;8.14;65.59
54920;BME280;63804;53.120;8.764;2023-05-01T03:05:42;101873.69;;;8.17;65.30
54920;BME280;63804;53.120;8.764;2023-05-01T03:08:08;101877.50;;;8.10;65.26
54920;BME280;63804;53.120;8.764;2023-05-01T03:10:38;101862.59;;;8.09;65.45
54920;BME280;63804;53.120;8.764;2023-05-01T03:13:06;101855.81;;;8.03;65.35
54920;BME280;63804;53.120;8.764;2023-05-01T03:15:34;101861.09;;;8.03;65.17
54920;BME280;63804;53.120;8.764;2023-05-01T03:18:01;101852.97;;;8.07;64.98
54920;BME280;63804;53.120;8.764;2023-05-01T03:20:28;101854.53;;;8.12;64.75
54920;BME280;63804;53.120;8.764;2023-05-01T03:22:56;101854.66;;;8.09;65.02
54920;BME280;63804;53.120;8.764;2023-05-01T03:25:23;101852.13;;;8.07;65.15
54920;BME280;63804;53.120;8.764;2023-05-01T03:27:50;101841.53;;;7.88;65.52
54920;BME280;63804;53.120;8.764;2023-05-01T03:30:20;101840.94;;;8.02;65.06
54920;BME280;63804;53.120;8.764;2023-05-01T03:32:47;101839.19;;;8.01;65.22
54920;BME280;63804;53.120;8.764;2023-05-01T03:35:14;101840.94;;;8.02;65.50
54920;BME280;63804;53.120;8.764;2023-05-01T03:37:41;101841.81;;;7.82;65.82
54920;BME280;63804;53.120;8.764;2023-05-01T03:40:08;101843.34;;;7.47;67.48
54920;BME280;63804;53.120;8.764;2023-05-01T03:42:36;101829.94;;;7.53;68.03
54920;BME280;63804;53.120;8.764;2023-05-01T03:45:03;101836.47;;;7.84;66.80
54920;BME280;63804;53.120;8.764;2023-05-01T03:47:33;101826.66;;;7.87;65.77
54920;BME280;63804;53.120;8.764;2023-05-01T03:50:00;101823.28;;;7.84;65.78
54920;BME280;63804;53.120;8.764;2023-05-01T03:52:27;101828.69;;;7.80;66.09
54920;BME280;63804;53.120;8.764;2023-05-01T03:54:54;101818.94;;;7.82;66.16
54920;BME280;63804;53.120;8.764;2023-05-01T03:57:22;101817.94;;;7.85;65.68
54920;BME280;63804;53.120;8.764;2023-05-01T03:59:49;101812.75;;;7.84;65.56
54920;BME280;63804;53.120;8.764;2023-05-01T04:02:16;101809.88;;;7.88;65.41
54920;BME280;63804;53.120;8.764;2023-05-01T04:04:44;101808.19;;;7.87;65.26
54920;BME280;63804;53.120;8.764;2023-05-01T04:07:12;101809.88;;;7.88;65.42
54920;BME280;63804;53.120;8.764;2023-05-01T04:09:39;101810.25;;;7.80;65.59
54920;BME280;63804;53.120;8.764;2023-05-01T04:12:06;101817.56;;;7.74;65.80
54920;BME280;63804;53.120;8.764;2023-05-01T04:14:33;101816.78;;;7.72;65.76
54920;BME280;63804;53.120;8.764;2023-05-01T04:17:00;101808.53;;;7.79;65.53
54920;BME280;63804;53.120;8.764;2023-05-01T04:19:27;101810.16;;;7.82;65.48
54920;BME280;63804;53.120;8.764;2023-05-01T04:21:54;101820.19;;;7.74;65.51
54920;BME280;63804;53.120;8.764;2023-05-01T04:24:22;101808.81;;;7.92;65.01
54920;BME280;63804;53.120;8.764;2023-05-01T04:26:49;101808.69;;;7.95;65.16
54920;BME280;63804;53.120;8.764;2023-05-01T04:29:16;101810.81;;;7.87;65.20
54920;BME280;63804;53.120;8.764;2023-05-01T04:31:43;101812.78;;;7.82;65.11
54920;BME280;63804;53.120;8.764;2023-05-01T04:34:10;101806.31;;;7.89;64.79
54920;BME280;63804;53.120;8.764;2023-05-01T04:36:37;101805.91;;;7.98;64.14
54920;BME280;63804;53.120;8.764;2023-05-01T04:39:04;101800.66;;;7.98;64.12
54920;BME280;63804;53.120;8.764;2023-05-01T04:41:31;101792.94;;;7.94;64.36
54920;BME280;63804;53.120;8.764;2023-05-01T04:43:58;101790.22;;;7.95;63.90
54920;BME280;63804;53.120;8.764;2023-05-01T04:46:25;101792.66;;;8.00;63.77
54920;BME280;63804;53.120;8.764;2023-05-01T04:48:52;101797.16;;;8.17;63.15
54920;BME280;63804;53.120;8.764;2023-05-01T04:51:19;101793.44;;;8.21;63.32
54920;BME280;63804;53.120;8.764;2023-05-01T04:53:47;101795.16;;;8.22;63.68
54920;BME280;63804;53.120;8.764;2023-05-01T04:56:14;101778.53;;;8.20;64.41
54920;BME280;63804;53.120;8.764;2023-05-01T04:58:41;101780.78;;;8.27;64.41
54920;BME280;63804;53.120;8.764;2023-05-01T05:01:08;101780.31;;;8.38;63.14
54920;BME280;63804;53.120;8.764;2023-05-01T05:03:35;101779.66;;;8.52;62.63
54920;BME280;63804;53.120;8.764;2023-05-01T05:06:03;101790.47;;;8.65;62.40
54920;BME280;63804;53.120;8.764;2023-05-01T05:08:30;101778.81;;;8.69;62.53
54920;BME280;63804;53.120;8.764;2023-05-01T05:10:58;101781.78;;;8.80;62.40
54920;BME280;63804;53.120;8.764;2023-05-01T05:13:28;101778.78;;;8.88;62.73
54920;BME280;63804;53.120;8.764;2023-05-01T05:15:55;101781.81;;;8.97;62.67
54920;BME280;63804;53.120;8.764;2023-05-01T05:18:22;101778.00;;;9.03;62.24
54920;BME280;63804;53.120;8.764;2023-05-01T05:20:49;101772.31;;;9.11;61.85
54920;BME280;63804;53.120;8.764;2023-05-01T05:23:16;101776.59;;;9.13;61.79
54920;BME280;63804;53.120;8.764;2023-05-01T05:25:43;101771.09;;;9.18;60.94
54920;BME280;63804;53.120;8.764;2023-05-01T05:28:10;101774.63;;;9.34;60.68
54920;BME280;63804;53.120;8.764;2023-05-01T05:30:37;101766.47;;;9.39;60.37
54920;BME280;63804;53.120;8.764;2023-05-01T05:33:06;101766.88;;;9.31;60.71
54920;BME280;63804;53.120;8.764;2023-05-01T05:35:34;101772.63;;;9.39;60.89
54920;BME280;63804;53.120;8.764;2023-05-01T05:38:01;101770.44;;;9.47;60.37
54920;BME280;63804;53.120;8.764;2023-05-01T05:40:28;101763.25;;;9.49;60.54
54920;BME280;63804;53.120;8.764;2023-05-01T05:42:55;101764.34;;;9.45;60.14
54920;BME280;63804;53.120;8.764;2023-05-01T05:45:23;101765.13;;;9.47;60.22
54920;BME280;63804;53.120;8.764;2023-05-01T05:47:50;101758.88;;;9.66;59.70
54920;BME280;63804;53.120;8.764;2023-05-01T05:50:17;101759.66;;;9.84;58.63
54920;BME280;63804;53.120;8.764;2023-05-01T05:52:44;101754.19;;;9.87;58.00
54920;BME280;63804;53.120;8.764;2023-05-01T05:55:11;101752.25;;;9.90;57.55
54920;BME280;63804;53.120;8.764;2023-05-01T05:57:38;101749.84;;;10.01;56.81
54920;BME280;63804;53.120;8.764;2023-05-01T06:00:06;101751.28;;;10.07;57.04
54920;BME280;63804;53.120;8.764;2023-05-01T06:02:33;101748.31;;;10.13;56.71
54920;BME280;63804;53.120;8.764;2023-05-01T06:05:00;101746.34;;;10.17;56.39
54920;BME280;63804;53.120;8.764;2023-05-01T06:07:27;101749.13;;;10.31;56.05
54920;BME280;63804;53.120;8.764;2023-05-01T06:09:54;101746.53;;;10.30;55.92
54920;BME280;63804;53.120;8.764;2023-05-01T06:12:27;101742.72;;;10.35;55.53
54920;BME280;63804;53.120;8.764;2023-05-01T06:14:55;101740.47;;;10.43;55.18
54920;BME280;63804;53.120;8.764;2023-05-01T06:17:23;101738.59;;;10.45;55.27
54920;BME280;63804;53.120;8.764;2023-05-01T06:19:50;101733.03;;;10.50;55.17
54920;BME280;63804;53.120;8.764;2023-05-01T06:22:20;101734.56;;;10.54;55.25
54920;BME280;63804;53.120;8.764;2023-05-01T06:24:47;101735.16;;;10.59;54.78
54920;BME280;63804;53.120;8.764;2023-05-01T06:27:14;101736.66;;;10.63;54.64
54920;BME280;63804;53.120;8.764;2023-05-01T06:29:41;101730.34;;;10.66;54.44
54920;BME280;63804;53.120;8.764;2023-05-01T06:32:08;101728.28;;;10.71;54.20
54920;BME280;63804;53.120;8.764;2023-05-01T06:34:35;101730.66;;;10.76;54.39
54920;BME280;63804;53.120;8.764;2023-05-01T06:37:02;101734.47;;;10.86;54.79
54920;BME280;63804;53.120;8.764;2023-05-01T06:39:31;101720.75;;;10.93;53.72
54920;BME280;63804;53.120;8.764;2023-05-01T06:41:58;101727.22;;;11.04;53.20
54920;BME280;63804;53.120;8.764;2023-05-01T06:44:25;101723.44;;;11.08;53.24
54920;BME280;63804;53.120;8.764;2023-05-01T06:46:52;101729.31;;;11.13;52.56
54920;BME280;63804;53.120;8.764;2023-05-01T06:49:19;101728.13;;;11.18;52.27
54920;BME280;63804;53.120;8.764;2023-05-01T06:51:45;101709.72;;;11.15;51.63
54920;BME280;63804;53.120;8.764;2023-05-01T06:54:12;101713.78;;;11.21;51.57
54920;BME280;63804;53.120;8.764;2023-05-01T06:56:39;101711.75;;;11.26;51.05
54920;BME280;63804;53.120;8.764;2023-05-01T06:59:06;101703.38;;;11.18;50.97
54920;BME280;63804;53.120;8.764;2023-05-01T07:01:34;101708.41;;;11.22;51.36
54920;BME280;63804;53.120;8.764;2023-05-01T07:04:02;101703.69;;;11.28;50.88
54920;BME280;63804;53.120;8.764;2023-05-01T07:06:29;101700.72;;;11.32;50.90
54920;BME280;63804;53.120;8.764;2023-05-01T07:08:58;101689.56;;;11.41;50.94
54920;BME280;63804;53.120;8.764;2023-05-01T07:11:25;101694.19;;;11.52;50.78
54920;BME280;63804;53.120;8.764;2023-05-01T07:13:53;101689.06;;;11.63;51.01
54920;BME280;63804;53.120;8.764;2023-05-01T07:16:20;101687.06;;;11.67;50.76
54920;BME280;63804;53.120;8.764;2023-05-01T07:18:47;101679.69;;;11.72;49.69
54920;BME280;63804;53.120;8.764;2023-05-01T07:21:14;101682.03;;;11.77;49.59
54920;BME280;63804;53.120;8.764;2023-05-01T07:23:41;101675.78;;;11.78;49.68
54920;BME280;63804;53.120;8.764;2023-05-01T07:26:08;101677.22;;;11.83;49.83
54920;BME280;63804;53.120;8.764;2023-05-01T07:28:35;101674.75;;;11.94;50.04
54920;BME280;63804;53.120;8.764;2023-05-01T07:31:02;101680.28;;;12.04;49.64
54920;BME280;63804;53.120;8.764;2023-05-01T07:33:29;101682.63;;;12.09;49.46
54920;BME280;63804;53.120;8.764;2023-05-01T07:35:56;101681.47;;;12.13;49.73
54920;BME280;63804;53.120;8.764;2023-05-01T07:38:23;101683.88;;;12.17;49.46
54920;BME280;63804;53.120;8.764;2023-05-01T07:40:53;101677.81;;;12.28;48.94
54920;BME280;63804;53.120;8.764;2023-05-01T07:43:20;101676.97;;;12.28;49.35
54920;BME280;63804;53.120;8.764;2023-05-01T07:45:55;101672.50;;;12.28;49.37
54920;BME280;63804;53.120;8.764;2023-05-01T07:48:27;101672.00;;;12.36;49.53
54920;BME280;63804;53.120;8.764;2023-05-01T07:50:54;101673.41;;;12.41;49.82
54920;BME280;63804;53.120;8.764;2023-05-01T07:53:22;101662.16;;;12.51;49.83
54920;BME280;63804;53.120;8.764;2023-05-01T07:55:49;101665.06;;;12.60;49.59
54920;BME280;63804;53.120;8.764;2023-05-01T07:58:16;101661.56;;;12.60;48.94
54920;BME280;63804;53.120;8.764;2023-05-01T08:00:43;101655.16;;;12.62;49.05
54920;BME280;63804;53.120;8.764;2023-05-01T08:03:11;101658.50;;;12.79;48.80
54920;BME280;63804;53.120;8.764;2023-05-01T08:05:40;101648.63;;;12.93;48.59
54920;BME280;63804;53.120;8.764;2023-05-01T08:08:07;101649.88;;;13.01;48.38
54920;BME280;63804;53.120;8.764;2023-05-01T08:10:35;101640.63;;;13.06;48.12
54920;BME280;63804;53.120;8.764;2023-05-01T08:13:02;101639.13;;;13.15;47.76
54920;BME280;63804;53.120;8.764;2023-05-01T08:15:29;101639.66;;;13.20;48.07
54920;BME280;63804;53.120;8.764;2023-05-01T08:17:56;101635.63;;;13.27;48.17
54920;BME280;63804;53.120;8.764;2023-05-01T08:20:23;101634.56;;;13.30;47.78
54920;BME280;63804;53.120;8.764;2023-05-01T08:22:50;101620.72;;;13.37;47.95
54920;BME280;63804;53.120;8.764;2023-05-01T08:25:17;101626.69;;;13.41;48.03
54920;BME280;63804;53.120;8.764;2023-05-01T08:27:44;101627.31;;;13.45;47.74
54920;BME280;63804;53.120;8.764;2023-05-01T08:30:11;101626.41;;;13.57;47.69
54920;BME280;63804;53.120;8.764;2023-05-01T08:32:38;101625.13;;;13.62;47.67
54920;BME280;63804;53.120;8.764;2023-05-01T08:35:05;101629.59;;;13.62;47.16
54920;BME280;63804;53.120;8.764;2023-05-01T08:37:32;101628.53;;;13.64;47.73
54920;BME280;63804;53.120;8.764;2023-05-01T08:40:00;101622.22;;;13.65;47.93
54920;BME280;63804;53.120;8.764;2023-05-01T08:42:30;101625.66;;;13.68;47.57
54920;BME280;63804;53.120;8.764;2023-05-01T08:44:58;101619.75;;;13.75;47.48
54920;BME280;63804;53.120;8.764;2023-05-01T08:47:27;101624.41;;;13.84;47.88
54920;BME280;63804;53.120;8.764;2023-05-01T08:49:56;101622.16;;;13.91;47.25
54920;BME280;63804;53.120;8.764;2023-05-01T08:52:26;101610.19;;;13.97;47.20
54920;BME280;63804;53.120;8.764;2023-05-01T08:54:55;101609.38;;;14.07;46.89
54920;BME280;63804;53.120;8.764;2023-05-01T08:57:23;101612.03;;;14.07;47.28
54920;BME280;63804;53.120;8.764;2023-05-01T08:59:52;101605.28;;;14.14;46.73
54920;BME280;63804;53.120;8.764;2023-05-01T09:02:23;101597.31;;;14.14;46.45
54920;BME280;63804;53.120;8.764;2023-05-01T09:04:50;101593.44;;;14.19;46.92
54920;BME280;63804;53.120;8.764;2023-05-01T09:07:18;101592.53;;;14.31;45.97
54920;BME280;63804;53.120;8.764;2023-05-01T09:09:45;101581.88;;;14.42;45.35
54920;BME280;63804;53.120;8.764;2023-05-01T09:12:22;101586.81;;;14.59;44.90
54920;BME280;63804;53.120;8.764;2023-05-01T09:14:51;101586.97;;;14.69;44.79
54920;BME280;63804;53.120;8.764;2023-05-01T09:17:20;101593.47;;;14.76;44.57
54920;BME280;63804;53.120;8.764;2023-05-01T09:19:49;101588.75;;;14.80;44.73
54920;BME280;63804;53.120;8.764;2023-05-01T09:22:17;101599.44;;;14.80;44.64
54920;BME280;63804;53.120;8.764;2023-05-01T09:24:44;101598.81;;;14.76;45.22
54920;BME280;63804;53.120;8.764;2023-05-01T09:27:13;101598.56;;;14.68;45.52
54920;BME280;63804;53.120;8.764;2023-05-01T09:29:42;101584.63;;;14.65;44.56
54920;BME280;63804;53.120;8.764;2023-05-01T09:34:42;101592.13;;;14.59;45.65
54920;BME280;63804;53.120;8.764;2023-05-01T09:37:32;101588.13;;;14.65;45.03
54920;BME280;63804;53.120;8.764;2023-05-01T09:40:12;101591.78;;;14.64;45.60
54920;BME280;63804;53.120;8.764;2023-05-01T09:42:48;101594.97;;;14.69;45.86
54920;BME280;63804;53.120;8.764;2023-05-01T09:45:16;101584.16;;;14.71;45.91
54920;BME280;63804;53.120;8.764;2023-05-01T09:47:45;101587.81;;;14.81;45.79
54920;BME280;63804;53.120;8.764;2023-05-01T09:50:30;101582.22;;;14.84;45.78
54920;BME280;63804;53.120;8.764;2023-05-01T09:53:02;101583.44;;;14.80;45.93
54920;BME280;63804;53.120;8.764;2023-05-01T09:55:31;101581.88;;;14.77;46.00
54920;BME280;63804;53.120;8.764;2023-05-01T09:57:59;101574.34;;;14.71;46.05
54920;BME280;63804;53.120;8.764;2023-05-01T10:00:26;101576.53;;;14.77;45.85
54920;BME280;63804;53.120;8.764;2023-05-01T10:02:53;101571.81;;;14.81;45.24
54920;BME280;63804;53.120;8.764;2023-05-01T10:05:20;101577.41;;;14.89;44.96
54920;BME280;63804;53.120;8.764;2023-05-01T10:08:00;101565.28;;;14.96;44.46
54920;BME280;63804;53.120;8.764;2023-05-01T10:10:32;101567.09;;;14.96;44.92
54920;BME280;63804;53.120;8.764;2023-05-01T10:13:16;101560.78;;;15.08;44.55
54920;BME280;63804;53.120;8.764;2023-05-01T10:15:43;101561.16;;;15.03;45.36
54920;BME280;63804;53.120;8.764;2023-05-01T10:18:13;101553.84;;;15.05;44.90
54920;BME280;63804;53.120;8.764;2023-05-01T10:20:40;101567.94;;;15.19;44.46
54920;BME280;63804;53.120;8.764;2023-05-01T10:23:07;101559.03;;;15.29;44.34
54920;BME280;63804;53.120;8.764;2023-05-01T10:25:35;101556.72;;;15.36;44.15
54920;BME280;63804;53.120;8.764;2023-05-01T10:28:02;101551.63;;;15.33;44.34
54920;BME280;63804;53.120;8.764;2023-05-01T10:30:34;101558.06;;;15.42;44.36
54920;BME280;63804;53.120;8.764;2023-05-01T10:33:02;101551.72;;;15.54;43.58
54920;BME280;63804;53.120;8.764;2023-05-01T10:35:35;101547.22;;;15.66;43.82
54920;BME280;63804;53.120;8.764;2023-05-01T10:38:12;101550.09;;;15.74;43.30
54920;BME280;63804;53.120;8.764;2023-05-01T10:40:46;101552.38;;;15.78;41.48
54920;BME280;63804;53.120;8.764;2023-05-01T10:43:17;101553.34;;;15.89;40.41
54920;BME280;63804;53.120;8.764;2023-05-01T10:45:46;101550.66;;;15.89;40.64
54920;BME280;63804;53.120;8.764;2023-05-01T10:53:35;101541.91;;;16.19;40.03
54920;BME280;63804;53.120;8.764;2023-05-01T10:56:03;101548.28;;;16.27;39.95
54920;BME280;63804;53.120;8.764;2023-05-01T11:01:29;101535.94;;;16.36;39.17
54920;BME280;63804;53.120;8.764;2023-05-01T11:04:05;101533.16;;;16.38;40.52
54920;BME280;63804;53.120;8.764;2023-05-01T11:06:36;101513.38;;;16.29;40.81
54920;BME280;63804;53.120;8.764;2023-05-01T11:09:34;101512.53;;;16.28;40.89
54920;BME280;63804;53.120;8.764;2023-05-01T11:12:02;101509.78;;;16.40;40.98
54920;BME280;63804;53.120;8.764;2023-05-01T11:22:51;101501.56;;;16.52;41.86
54920;BME280;63804;53.120;8.764;2023-05-01T11:25:20;101497.28;;;16.71;41.22
54920;BME280;63804;53.120;8.764;2023-05-01T11:27:49;101495.09;;;16.76;40.74
54920;BME280;63804;53.120;8.764;2023-05-01T11:30:16;101484.78;;;16.71;41.01
54920;BME280;63804;53.120;8.764;2023-05-01T11:32:45;101486.00;;;16.67;40.74
54920;BME280;63804;53.120;8.764;2023-05-01T11:35:16;101487.72;;;16.68;39.82
54920;BME280;63804;53.120;8.764;2023-05-01T11:37:44;101486.00;;;16.67;40.31
54920;BME280;63804;53.120;8.764;2023-05-01T11:40:31;101488.34;;;16.81;40.45
54920;BME280;63804;53.120;8.764;2023-05-01T11:43:06;101487.25;;;16.94;41.16
54920;BME280;63804;53.120;8.764;2023-05-01T11:45:34;101484.13;;;16.89;41.32
54920;BME280;63804;53.120;8.764;2023-05-01T11:48:03;101477.38;;;16.85;40.90
54920;BME280;63804;53.120;8.764;2023-05-01T11:50:31;101471.41;;;16.71;40.92
54920;BME280;63804;53.120;8.764;2023-05-01T11:52:58;101468.16;;;16.68;41.89
54920;BME280;63804;53.120;8.764;2023-05-01T11:55:33;101471.34;;;16.92;43.01
54920;BME280;63804;53.120;8.764;2023-05-01T11:58:00;101469.97;;;17.08;40.92
54920;BME280;63804;53.120;8.764;2023-05-01T12:00:32;101461.63;;;17.01;40.74
54920;BME280;63804;53.120;8.764;2023-05-01T12:05:29;101461.47;;;16.93;40.83
54920;BME280;63804;53.120;8.764;2023-05-01T12:10:46;101455.75;;;17.07;40.89
54920;BME280;63804;53.120;8.764;2023-05-01T12:13:15;101456.75;;;17.06;41.40
54920;BME280;63804;53.120;8.764;2023-05-01T12:15:47;101451.09;;;17.09;41.04
54920;BME280;63804;53.120;8.764;2023-05-01T12:18:15;101448.13;;;17.12;41.65
54920;BME280;63804;53.120;8.764;2023-05-01T12:20:49;101445.72;;;17.09;41.96
54920;BME280;63804;53.120;8.764;2023-05-01T12:23:19;101442.78;;;17.02;42.21
54920;BME280;63804;53.120;8.764;2023-05-01T12:25:55;101448.56;;;17.08;41.26
54920;BME280;63804;53.120;8.764;2023-05-01T12:28:22;101445.34;;;17.14;41.26
54920;BME280;63804;53.120;8.764;2023-05-01T12:30:49;101442.94;;;17.11;41.07
54920;BME280;63804;53.120;8.764;2023-05-01T12:33:18;101435.31;;;17.06;40.76
54920;BME280;63804;53.120;8.764;2023-05-01T12:35:48;101437.56;;;17.01;40.84
54920;BME280;63804;53.120;8.764;2023-05-01T12:38:17;101433.09;;;17.21;41.10
54920;BME280;63804;53.120;8.764;2023-05-01T12:40:55;101427.75;;;17.40;41.45
54920;BME280;63804;53.120;8.764;2023-05-01T12:43:34;101431.38;;;17.39;42.21
54920;BME280;63804;53.120;8.764;2023-05-01T12:46:03;101431.94;;;17.43;41.58
54920;BME280;63804;53.120;8.764;2023-05-01T12:48:30;101425.47;;;17.36;41.75
54920;BME280;63804;53.120;8.764;2023-05-01T12:51:00;101422.94;;;17.24;41.99
54920;BME280;63804;53.120;8.764;2023-05-01T12:53:28;101428.16;;;17.36;42.17
54920;BME280;63804;53.120;8.764;2023-05-01T12:55:57;101424.78;;;17.34;41.22
54920;BME280;63804;53.120;8.764;2023-05-01T12:58:35;101416.88;;;17.42;41.12
54920;BME280;63804;53.120;8.764;2023-05-01T13:01:03;101413.78;;;17.46;41.25
54920;BME280;63804;53.120;8.764;2023-05-01T13:03:32;101409.81;;;17.60;41.10
54920;BME280;63804;53.120;8.764;2023-05-01T13:06:01;101409.13;;;17.68;41.47
54920;BME280;63804;53.120;8.764;2023-05-01T13:08:35;101407.97;;;17.70;41.12
54920;BME280;63804;53.120;8.764;2023-05-01T13:11:14;101399.41;;;17.76;40.02
54920;BME280;63804;53.120;8.764;2023-05-01T13:13:45;101395.03;;;17.75;39.58
54920;BME280;63804;53.120;8.764;2023-05-01T13:16:14;101403.41;;;18.00;39.51
54920;BME280;63804;53.120;8.764;2023-05-01T13:18:44;101388.50;;;17.97;40.08
54920;BME280;63804;53.120;8.764;2023-05-01T13:21:13;101392.75;;;17.81;40.61
54920;BME280;63804;53.120;8.764;2023-05-01T13:23:53;101391.91;;;17.80;40.55
54920;BME280;63804;53.120;8.764;2023-05-01T13:26:29;101402.31;;;17.73;40.73
54920;BME280;63804;53.120;8.764;2023-05-01T13:29:03;101399.13;;;17.60;40.18
54920;BME280;63804;53.120;8.764;2023-05-01T13:31:31;101396.72;;;17.57;40.28
54920;BME280;63804;53.120;8.764;2023-05-01T13:33:59;101396.56;;;17.59;40.44
54920;BME280;63804;53.120;8.764;2023-05-01T13:36:30;101389.81;;;17.64;40.00
54920;BME280;63804;53.120;8.764;2023-05-01T13:38:58;101394.03;;;17.76;39.75